Time;durP1;ratioP1;P1;durP2;ratioP2;P2;SDS_P1;SDS_P2;PMS_P1;PMS_P2;Temp;Humidity;BMP_temperature;BMP_pressure;BME280_temperature;BME280_humidity;BME280_pressure;Samples;Min_cycle;Max_cycle;Signal;HPM_P1;HPM_P2
2023/05/03 00:01:42;;;;;;;3.00;2.70;;;12.30;99.90;;;;;;5071487;28;20240;-61
2023/05/03 00:04:09;;;;;;;3.40;2.83;;;12.20;99.90;;;;;;5072251;28;20215;-62
2023/05/03 00:06:36;;;;;;;5.87;2.63;;;12.10;99.90;;;;;;5072194;28;20200;-61
2023/05/03 00:09:02;;;;;;;4.00;2.90;;;12.10;99.90;;;;;;5071744;28;20215;-61
2023/05/03 00:11:29;;;;;;;4.67;3.00;;;12.00;99.90;;;;;;5071431;28;20212;-61
2023/05/03 00:13:56;;;;;;;5.70;2.80;;;11.90;99.90;;;;;;5071422;28;20209;-61
2023/05/03 00:16:22;;;;;;;6.23;3.30;;;11.80;99.90;;;;;;5071892;28;20212;-61
2023/05/03 00:18:50;;;;;;;3.77;3.10;;;11.70;99.90;;;;;;5071800;28;20235;-62
2023/05/03 00:21:17;;;;;;;5.53;3.10;;;11.60;99.90;;;;;;5075172;28;20219;-62
2023/05/03 00:23:44;;;;;;;3.17;2.87;;;11.50;99.90;;;;;;5075816;28;20212;-62
2023/05/03 00:26:10;;;;;;;5.27;3.10;;;11.40;99.90;;;;;;5075957;28;20759;-61
2023/05/03 00:28:37;;;;;;;4.30;3.50;;;11.40;99.90;;;;;;5075829;28;20207;-62
2023/05/03 00:31:08;;;;;;;3.60;3.10;;;11.30;99.90;;;;;;5075658;28;20204;-62
2023/05/03 00:33:34;;;;;;;4.43;3.30;;;11.20;99.90;;;;;;5075936;28;20720;-61
2023/05/03 00:36:08;;;;;;;5.90;3.20;;;11.10;99.90;;;;;;5076135;28;20515;-61
2023/05/03 00:38:35;;;;;;;3.27;2.93;;;11.10;99.90;;;;;;5075787;28;20684;-61
2023/05/03 00:41:03;;;;;;;3.63;2.90;;;11.00;99.90;;;;;;5075322;28;20224;-62
2023/05/03 00:43:30;;;;;;;3.60;3.20;;;11.00;99.90;;;;;;5075395;28;20258;-61
2023/05/03 00:45:57;;;;;;;4.93;3.10;;;10.90;99.90;;;;;;5075588;28;20209;-61
2023/05/03 00:48:24;;;;;;;3.67;3.00;;;10.90;99.90;;;;;;5075598;28;20200;-61
2023/05/03 00:50:53;;;;;;;5.23;2.97;;;10.90;99.90;;;;;;5075228;28;20283;-61
2023/05/03 00:53:22;;;;;;;3.47;3.07;;;10.80;99.90;;;;;;5075143;28;20230;-61
2023/05/03 00:55:52;;;;;;;5.00;3.10;;;10.90;99.90;;;;;;5075131;28;20691;-62
2023/05/03 00:58:20;;;;;;;3.73;3.10;;;10.90;99.90;;;;;;5075267;28;20257;-61
2023/05/03 01:00:47;;;;;;;4.00;3.23;;;11.00;99.90;;;;;;5075083;28;20244;-61
2023/05/03 01:03:14;;;;;;;3.77;2.93;;;11.00;99.90;;;;;;5074848;28;20310;-61
2023/05/03 01:05:51;;;;;;;4.00;2.90;;;11.00;99.90;;;;;;5074941;28;20236;-61
2023/05/03 01:08:29;;;;;;;5.57;3.30;;;11.10;99.90;;;;;;5074791;28;20201;-61
2023/05/03 01:11:04;;;;;;;4.90;3.13;;;11.10;99.90;;;;;;5074949;28;20669;-62
2023/05/03 01:13:42;;;;;;;4.57;3.03;;;11.10;99.90;;;;;;5074886;28;20228;-62
2023/05/03 01:16:14;;;;;;;4.23;3.00;;;11.20;99.90;;;;;;5075054;28;20232;-61
2023/05/03 01:18:45;;;;;;;3.83;3.00;;;11.20;99.90;;;;;;5074804;28;20225;-62
2023/05/03 01:21:14;;;;;;;4.03;2.50;;;11.20;99.90;;;;;;5074537;28;20676;-62
2023/05/03 01:23:45;;;;;;;5.67;3.07;;;11.20;99.90;;;;;;5074800;28;20398;-61
2023/05/03 01:26:19;;;;;;;3.17;2.80;;;11.30;99.90;;;;;;5074574;28;20212;-61
2023/05/03 01:28:46;;;;;;;8.70;3.27;;;11.30;99.90;;;;;;5074522;28;20212;-62
2023/05/03 01:31:17;;;;;;;3.70;2.93;;;11.30;99.90;;;;;;5072857;28;20684;-61
2023/05/03 01:33:48;;;;;;;4.43;2.90;;;11.30;99.90;;;;;;5074604;28;20209;-61
2023/05/03 01:36:21;;;;;;;3.80;2.77;;;11.30;99.90;;;;;;5074402;28;20216;-62
2023/05/03 01:38:49;;;;;;;3.10;2.80;;;11.40;99.90;;;;;;5074464;28;20224;-61
2023/05/03 01:41:20;;;;;;;2.90;2.60;;;11.30;99.90;;;;;;5073771;28;20668;-61
2023/05/03 01:43:47;;;;;;;5.93;3.47;;;11.40;99.90;;;;;;5117039;22;20236;-58
2023/05/03 01:46:14;;;;;;;7.60;3.67;;;11.40;99.90;;;;;;5095605;28;20261;-58
2023/05/03 01:48:41;;;;;;;7.10;3.73;;;11.40;99.90;;;;;;5095874;28;20283;-59
2023/05/03 01:51:08;;;;;;;3.53;2.80;;;11.40;99.90;;;;;;5096562;28;20257;-59
2023/05/03 01:53:35;;;;;;;3.00;2.60;;;11.30;99.90;;;;;;5095437;28;20224;-58
2023/05/03 01:56:01;;;;;;;3.70;2.87;;;11.30;99.90;;;;;;5095431;28;20239;-58
2023/05/03 01:58:29;;;;;;;2.97;2.67;;;11.30;99.90;;;;;;5095328;28;20224;-58
2023/05/03 02:00:56;;;;;;;6.23;3.10;;;11.30;99.90;;;;;;5095594;28;20695;-58
2023/05/03 02:03:23;;;;;;;5.10;3.43;;;11.30;99.90;;;;;;5094955;28;20261;-58
2023/05/03 02:05:50;;;;;;;4.00;3.60;;;11.30;99.90;;;;;;5095513;28;20216;-58
2023/05/03 02:08:16;;;;;;;5.93;3.63;;;11.30;99.90;;;;;;5094878;28;20201;-58
2023/05/03 02:10:44;;;;;;;5.93;3.37;;;11.20;99.90;;;;;;5095590;28;20601;-58
2023/05/03 02:13:11;;;;;;;6.07;4.33;;;11.10;99.90;;;;;;5095112;28;20281;-58
2023/05/03 02:15:39;;;;;;;6.23;4.27;;;11.10;99.90;;;;;;5095331;28;20224;-58
2023/05/03 02:18:07;;;;;;;5.80;3.23;;;11.00;99.90;;;;;;5095237;28;20251;-60
2023/05/03 02:20:36;;;;;;;5.03;3.30;;;10.90;99.90;;;;;;5095242;28;20247;-58
2023/05/03 02:23:03;;;;;;;4.63;3.70;;;10.80;99.90;;;;;;5094952;28;20228;-58
2023/05/03 02:25:30;;;;;;;4.13;3.60;;;10.80;99.90;;;;;;5095123;28;20207;-57
2023/05/03 02:27:57;;;;;;;5.50;3.60;;;10.70;99.90;;;;;;5095352;28;20246;-58
2023/05/03 02:30:24;;;;;;;6.70;4.20;;;10.70;99.90;;;;;;5095289;28;20265;-58
2023/05/03 02:32:52;;;;;;;4.20;3.80;;;10.70;99.90;;;;;;5094690;28;20727;-57
2023/05/03 02:35:18;;;;;;;6.80;4.70;;;10.60;99.90;;;;;;5094803;28;20216;-57
2023/05/03 02:37:45;;;;;;;7.87;5.13;;;10.50;99.90;;;;;;5095132;28;20215;-58
2023/05/03 02:40:12;;;;;;;8.40;5.47;;;10.40;99.90;;;;;;5095245;28;20671;-58
2023/05/03 02:42:40;;;;;;;8.27;5.20;;;10.20;99.90;;;;;;5093887;28;20593;-57
2023/05/03 02:45:07;;;;;;;6.83;5.23;;;10.10;99.90;;;;;;5094709;28;20204;-58
2023/05/03 02:47:34;;;;;;;7.87;5.60;;;10.00;99.90;;;;;;5095019;28;20291;-58
2023/05/03 02:50:02;;;;;;;7.67;5.77;;;9.90;99.90;;;;;;5095158;28;20204;-58
2023/05/03 02:52:29;;;;;;;6.67;5.23;;;9.90;99.90;;;;;;5094381;28;20232;-58
2023/05/03 02:54:55;;;;;;;7.40;5.53;;;9.80;99.90;;;;;;5094953;28;20216;-58
2023/05/03 02:57:22;;;;;;;6.30;5.40;;;9.80;99.90;;;;;;5094840;28;20227;-58
2023/05/03 02:59:49;;;;;;;8.40;5.83;;;9.80;99.90;;;;;;5094474;28;20244;-56
2023/05/03 03:02:16;;;;;;;8.90;4.80;;;9.50;99.90;;;;;;5094776;28;20311;-58
2023/05/03 03:04:43;;;;;;;6.67;4.10;;;9.70;99.90;;;;;;5094487;28;20211;-58
2023/05/03 03:07:11;;;;;;;4.30;3.90;;;9.70;99.90;;;;;;5094468;28;20653;-57
2023/05/03 03:09:37;;;;;;;6.00;4.23;;;9.70;99.90;;;;;;5094286;28;20578;-58
2023/05/03 03:12:05;;;;;;;5.37;4.33;;;9.60;99.90;;;;;;5094182;28;20231;-58
2023/05/03 03:14:31;;;;;;;4.83;3.80;;;9.60;99.90;;;;;;5094104;28;20216;-58
2023/05/03 03:16:58;;;;;;;4.50;3.90;;;9.50;99.90;;;;;;5093926;28;20204;-58
2023/05/03 03:19:25;;;;;;;6.67;4.47;;;9.50;99.90;;;;;;5093930;28;20227;-58
2023/05/03 03:21:51;;;;;;;4.70;3.80;;;9.50;99.90;;;;;;5093757;28;20231;-57
2023/05/03 03:24:19;;;;;;;10.37;5.20;;;9.40;99.90;;;;;;5093672;28;20208;-58
2023/05/03 03:26:46;;;;;;;7.70;4.40;;;9.40;99.90;;;;;;5093849;28;20298;-58
2023/05/03 03:29:13;;;;;;;6.90;4.13;;;9.40;99.90;;;;;;5094323;28;20200;-58
2023/05/03 03:31:39;;;;;;;5.90;4.10;;;9.30;99.90;;;;;;5094035;28;20204;-58
2023/05/03 03:34:06;;;;;;;4.87;4.07;;;9.30;99.90;;;;;;5094039;28;20204;-58
2023/05/03 03:36:33;;;;;;;4.83;4.10;;;9.30;99.90;;;;;;5094266;28;20209;-58
2023/05/03 03:38:59;;;;;;;6.33;4.60;;;9.20;99.90;;;;;;5094011;28;20231;-59
2023/05/03 03:41:27;;;;;;;5.13;4.40;;;9.20;99.90;;;;;;5093534;28;20204;-57
2023/05/03 03:43:54;;;;;;;6.97;5.13;;;9.20;99.90;;;;;;5093699;28;20232;-57
2023/05/03 03:46:21;;;;;;;4.97;4.17;;;9.20;99.90;;;;;;5093710;28;20299;-58
2023/05/03 03:48:47;;;;;;;8.93;5.33;;;9.10;99.90;;;;;;5093949;28;20212;-58
2023/05/03 03:51:14;;;;;;;5.67;4.27;;;9.10;99.90;;;;;;5094391;28;20208;-58
2023/05/03 03:53:41;;;;;;;6.73;4.77;;;9.00;99.90;;;;;;5093492;28;20323;-58
2023/05/03 03:56:08;;;;;;;6.87;4.13;;;8.90;99.90;;;;;;5093570;28;20208;-56
2023/05/03 03:58:36;;;;;;;7.43;4.60;;;8.90;99.90;;;;;;5093849;28;20224;-57
2023/05/03 04:01:04;;;;;;;6.00;4.57;;;8.90;99.90;;;;;;5094446;28;20281;-58
2023/05/03 04:03:30;;;;;;;6.97;4.40;;;8.90;99.90;;;;;;5094078;28;20232;-57
2023/05/03 04:05:57;;;;;;;7.00;5.00;;;8.90;99.90;;;;;;5094257;28;20204;-58
2023/05/03 04:08:24;;;;;;;5.50;4.10;;;8.90;99.90;;;;;;5094048;28;20204;-58
2023/05/03 04:10:50;;;;;;;4.90;4.40;;;9.00;99.90;;;;;;5094244;28;20204;-58
2023/05/03 04:13:17;;;;;;;6.30;4.47;;;8.80;99.90;;;;;;5093655;28;20239;-57
2023/05/03 04:15:45;;;;;;;4.40;4.00;;;8.80;99.90;;;;;;5093737;28;20212;-58
2023/05/03 04:18:12;;;;;;;4.27;3.77;;;8.70;99.90;;;;;;5094128;28;20208;-58
2023/05/03 04:20:38;;;;;;;7.47;4.60;;;8.80;99.90;;;;;;5093859;28;20204;-58
2023/05/03 04:23:05;;;;;;;7.33;4.20;;;8.80;99.90;;;;;;5093183;28;20228;-57
2023/05/03 04:25:32;;;;;;;5.17;4.20;;;8.80;99.90;;;;;;5093809;28;20208;-58
2023/05/03 04:27:58;;;;;;;6.93;4.50;;;8.80;99.90;;;;;;5093591;28;20200;-58
2023/05/03 04:30:25;;;;;;;5.47;4.00;;;8.80;99.90;;;;;;5093521;28;20687;-57
2023/05/03 04:32:54;;;;;;;6.13;3.93;;;8.80;99.90;;;;;;5093145;28;20629;-58
2023/05/03 04:35:21;;;;;;;9.17;4.37;;;8.80;99.90;;;;;;5093286;28;20231;-58
2023/05/03 04:37:48;;;;;;;6.90;4.27;;;8.90;99.90;;;;;;5093734;28;20200;-58
2023/05/03 04:40:16;;;;;;;6.53;4.20;;;9.00;99.90;;;;;;5093597;28;20273;-58
2023/05/03 04:42:42;;;;;;;9.90;4.80;;;9.00;99.90;;;;;;5093027;28;20242;-58
2023/05/03 04:45:10;;;;;;;6.50;4.63;;;9.10;99.90;;;;;;5093840;28;20276;-58
2023/05/03 04:47:37;;;;;;;6.23;4.67;;;9.20;99.90;;;;;;5094212;28;20212;-58
2023/05/03 04:50:06;;;;;;;8.30;4.60;;;9.30;99.90;;;;;;5094110;28;20691;-58
2023/05/03 04:52:33;;;;;;;6.30;4.67;;;9.40;99.90;;;;;;5093365;28;20224;-58
2023/05/03 04:55:00;;;;;;;5.23;4.23;;;9.50;99.90;;;;;;5093842;28;20208;-57
2023/05/03 04:57:26;;;;;;;7.60;4.70;;;9.60;99.90;;;;;;5092972;28;20577;-58
2023/05/03 04:59:53;;;;;;;7.10;4.53;;;9.70;99.90;;;;;;5094216;28;20251;-58
2023/05/03 05:02:21;;;;;;;7.17;4.67;;;9.80;99.90;;;;;;5094041;28;20259;-57
2023/05/03 05:04:48;;;;;;;6.17;4.43;;;9.90;99.90;;;;;;5093999;28;20222;-58
2023/05/03 05:07:16;;;;;;;6.10;4.77;;;10.00;99.90;;;;;;5096325;28;20211;-58
2023/05/03 05:09:43;;;;;;;8.70;4.30;;;10.10;99.90;;;;;;5095929;28;20721;-59
2023/05/03 05:12:10;;;;;;;6.43;4.80;;;10.40;99.90;;;;;;5095381;28;20232;-58
2023/05/03 05:14:36;;;;;;;8.97;5.00;;;10.60;99.90;;;;;;5095245;28;20208;-57
2023/05/03 05:17:03;;;;;;;8.67;5.37;;;10.70;99.90;;;;;;5095132;28;20204;-58
2023/05/03 05:19:30;;;;;;;6.40;5.17;;;10.80;99.90;;;;;;5095056;28;20227;-58
2023/05/03 05:21:57;;;;;;;7.70;6.17;;;10.80;99.90;;;;;;5095099;28;20200;-58
2023/05/03 05:24:25;;;;;;;10.53;7.67;;;10.80;99.90;;;;;;5095007;28;20238;-58
2023/05/03 05:26:52;;;;;;;12.73;7.70;;;10.90;99.90;;;;;;5095138;28;20197;-58
2023/05/03 05:29:19;;;;;;;8.77;7.07;;;11.00;99.90;;;;;;5095230;28;20244;-58
2023/05/03 05:31:45;;;;;;;9.07;7.03;;;11.00;99.90;;;;;;5094834;28;20206;-58
2023/05/03 05:34:12;;;;;;;8.87;6.53;;;11.50;99.90;;;;;;5094771;28;20261;-58
2023/05/03 05:36:39;;;;;;;8.77;6.33;;;13.00;99.90;;;;;;5094539;28;20246;-58
2023/05/03 05:39:05;;;;;;;7.43;5.23;;;14.80;99.90;;;;;;5094510;28;20223;-58
2023/05/03 05:41:33;;;;;;;8.98;5.40;;;16.70;99.90;;;;;;5094837;28;20211;-58
2023/05/03 05:44:00;;;;;;;5.97;5.10;;;18.40;99.90;;;;;;5095423;28;20239;-59
2023/05/03 05:46:27;;;;;;;13.95;5.72;;;19.90;99.90;;;;;;5095123;28;20208;-58
2023/05/03 05:48:54;;;;;;;6.63;4.55;;;21.10;99.90;;;;;;5095556;28;20208;-58
2023/05/03 05:51:21;;;;;;;6.30;4.38;;;22.40;99.90;;;;;;5095795;28;20208;-59
2023/05/03 05:53:47;;;;;;;6.28;4.70;;;23.60;99.70;;;;;;5095292;28;20707;-58
2023/05/03 05:56:15;;;;;;;7.05;4.82;;;24.40;96.00;;;;;;5095076;28;20578;-58
2023/05/03 05:58:43;;;;;;;6.45;4.43;;;24.90;93.90;;;;;;5095354;28;20208;-58
2023/05/03 06:01:09;;;;;;;6.15;4.65;;;25.30;92.80;;;;;;5095252;28;20204;-58
2023/05/03 06:03:36;;;;;;;6.45;4.93;;;25.70;91.30;;;;;;5094564;28;20228;-59
2023/05/03 06:06:03;;;;;;;7.85;4.75;;;26.00;90.30;;;;;;5094561;28;20204;-59
2023/05/03 06:08:30;;;;;;;6.22;4.47;;;26.40;89.00;;;;;;5094665;28;20208;-58
2023/05/03 06:10:56;;;;;;;5.38;4.88;;;27.10;84.20;;;;;;5094358;28;20258;-59
2023/05/03 06:13:23;;;;;;;5.70;4.40;;;27.60;82.30;;;;;;5094768;28;20224;-59
2023/05/03 06:15:52;;;;;;;6.72;4.97;;;27.90;80.20;;;;;;5094793;28;20660;-58
2023/05/03 06:18:19;;;;;;;5.53;4.43;;;28.20;77.70;;;;;;5093602;28;20201;-59
2023/05/03 06:20:49;;;;;;;5.07;4.40;;;28.60;75.30;;;;;;5094225;28;20224;-59
2023/05/03 06:23:15;;;;;;;5.60;4.03;;;29.00;73.80;;;;;;5094474;28;20232;-59
2023/05/03 06:25:45;;;;;;;6.10;5.13;;;29.20;71.90;;;;;;5094856;28;20211;-58
2023/05/03 06:28:12;;;;;;;4.88;4.35;;;29.40;70.90;;;;;;5094081;28;20204;-59
2023/05/03 06:30:38;;;;;;;8.90;4.30;;;29.60;68.70;;;;;;5094469;28;20201;-58
2023/05/03 06:33:06;;;;;;;7.30;4.10;;;29.60;68.60;;;;;;5093602;28;20575;-59
2023/05/03 06:35:33;;;;;;;5.20;4.70;;;30.10;67.10;;;;;;5094340;28;20210;-59
2023/05/03 06:38:00;;;;;;;7.05;5.20;;;30.40;65.30;;;;;;5094669;28;20207;-59
2023/05/03 06:40:26;;;;;;;6.00;4.45;;;30.70;64.00;;;;;;5094822;28;20608;-59
2023/05/03 06:42:53;;;;;;;5.80;4.70;;;30.90;62.80;;;;;;5094181;28;20236;-59
2023/05/03 06:45:20;;;;;;;5.78;4.70;;;31.20;61.90;;;;;;5095218;28;20212;-59
2023/05/03 06:47:48;;;;;;;4.85;4.32;;;31.20;60.80;;;;;;5094662;28;20303;-58
2023/05/03 06:50:18;;;;;;;6.50;4.80;;;31.10;60.60;;;;;;5094769;28;20203;-59
2023/05/03 06:52:45;;;;;;;5.53;4.30;;;30.90;60.10;;;;;;5094567;28;20253;-59
2023/05/03 06:55:12;;;;;;;5.38;4.70;;;30.80;60.40;;;;;;5094269;28;20207;-60
2023/05/03 06:57:41;;;;;;;4.95;4.50;;;30.70;59.60;;;;;;5094038;28;20233;-59
2023/05/03 07:00:10;;;;;;;5.07;4.30;;;30.70;59.60;;;;;;5093852;28;20224;-59
2023/05/03 07:02:36;;;;;;;4.68;4.28;;;30.60;59.60;;;;;;5093441;28;20576;-60
2023/05/03 07:05:03;;;;;;;5.82;5.00;;;29.40;62.10;;;;;;5094062;28;20252;-60
2023/05/03 07:07:32;;;;;;;5.63;4.10;;;29.10;62.20;;;;;;5093898;28;20211;-60
2023/05/03 07:09:59;;;;;;;4.93;4.07;;;29.70;61.40;;;;;;5094173;28;20211;-61
2023/05/03 07:12:27;;;;;;;5.72;4.82;;;30.40;60.70;;;;;;5093411;28;20235;-60
2023/05/03 07:14:54;;;;;;;6.28;4.72;;;31.60;58.20;;;;;;5093671;28;20208;-59
2023/05/03 07:17:21;;;;;;;5.43;4.63;;;32.70;56.50;;;;;;5093662;28;20215;-60
2023/05/03 07:19:49;;;;;;;8.20;5.07;;;33.80;54.50;;;;;;5093496;28;20216;-60
2023/05/03 07:22:16;;;;;;;4.63;4.20;;;33.80;53.20;;;;;;5095128;28;20320;-63
2023/05/03 07:24:44;;;;;;;4.60;4.20;;;34.00;52.40;;;;;;5094071;28;20208;-60
2023/05/03 07:27:10;;;;;;;4.45;4.05;;;34.10;52.30;;;;;;5093066;28;20204;-60
2023/05/03 07:29:37;;;;;;;5.80;4.00;;;33.60;52.20;;;;;;5092401;28;20208;-60
2023/05/03 07:32:04;;;;;;;6.07;4.18;;;33.50;52.10;;;;;;5093051;28;20711;-60
2023/05/03 07:34:32;;;;;;;5.18;4.38;;;33.30;53.30;;;;;;5093741;28;20208;-59
2023/05/03 07:36:59;;;;;;;6.85;5.28;;;32.80;52.80;;;;;;5093032;28;20671;-60
2023/05/03 07:39:25;;;;;;;6.47;4.90;;;32.40;54.00;;;;;;5093379;28;20281;-60
2023/05/03 07:41:53;;;;;;;4.20;3.80;;;32.80;53.10;;;;;;5093067;28;20212;-59
2023/05/03 07:44:21;;;;;;;6.13;4.45;;;32.80;52.70;;;;;;5090181;22;20606;-64
2023/05/03 07:46:47;;;;;;;4.45;4.00;;;32.70;52.90;;;;;;5072395;28;20205;-64
2023/05/03 07:49:15;;;;;;;7.55;4.35;;;32.90;53.00;;;;;;5073012;28;20204;-63
2023/05/03 07:51:41;;;;;;;4.18;3.78;;;33.00;52.40;;;;;;5073230;28;20205;-63
2023/05/03 07:54:08;;;;;;;5.07;4.20;;;32.60;52.50;;;;;;5072585;28;20747;-62
2023/05/03 07:56:35;;;;;;;4.47;4.07;;;31.30;54.80;;;;;;5064466;28;20283;-63
2023/05/03 07:59:03;;;;;;;4.93;4.35;;;30.10;56.10;;;;;;5058802;28;20209;-64
2023/05/03 08:01:30;;;;;;;6.15;4.75;;;29.30;57.20;;;;;;5070465;28;20235;-64
2023/05/03 08:03:57;;;;;;;5.47;4.65;;;28.70;58.70;;;;;;5069787;28;20283;-66
2023/05/03 08:06:23;;;;;;;5.65;4.68;;;27.60;59.90;;;;;;5070490;28;20334;-68
2023/05/03 08:08:50;;;;;;;6.07;4.82;;;26.30;62.60;;;;;;5070498;28;20208;-64
2023/05/03 08:11:17;;;;;;;5.25;4.75;;;25.40;65.10;;;;;;5070006;28;20255;-65
2023/05/03 08:13:43;;;;;;;5.07;4.47;;;24.80;66.70;;;;;;5070248;28;20235;-65
2023/05/03 08:16:15;;;;;;;6.35;4.75;;;24.60;68.10;;;;;;5071845;28;20209;-65
2023/05/03 08:18:41;;;;;;;5.72;4.72;;;24.70;68.30;;;;;;5070824;28;20207;-65
2023/05/03 08:21:08;;;;;;;5.78;5.03;;;24.70;68.40;;;;;;5070230;28;20227;-66
2023/05/03 08:23:35;;;;;;;5.55;5.00;;;24.60;69.00;;;;;;5069922;28;20231;-64
2023/05/03 08:26:03;;;;;;;4.97;4.47;;;24.60;69.10;;;;;;5070051;28;20205;-67
2023/05/03 08:28:29;;;;;;;5.03;4.45;;;25.00;69.30;;;;;;5070850;28;20596;-65
2023/05/03 08:30:56;;;;;;;4.82;4.28;;;25.70;68.30;;;;;;5070196;28;20661;-65
2023/05/03 08:33:24;;;;;;;5.63;4.53;;;26.00;67.30;;;;;;5069705;28;20225;-63
2023/05/03 08:35:51;;;;;;;5.35;4.82;;;25.70;67.90;;;;;;5070167;28;20581;-68
2023/05/03 08:38:18;;;;;;;4.68;4.22;;;25.00;69.40;;;;;;5070248;28;20617;-68
2023/05/03 08:40:50;;;;;;;7.20;5.03;;;24.30;71.10;;;;;;5071030;28;20228;-68
2023/05/03 08:43:20;;;;;;;8.23;5.18;;;23.70;72.50;;;;;;5073980;28;20240;-68
2023/05/03 08:45:47;;;;;;;9.02;5.20;;;23.20;74.10;;;;;;5074305;28;20671;-68
2023/05/03 08:48:14;;;;;;;5.97;5.38;;;22.60;75.40;;;;;;5073624;28;20201;-66
2023/05/03 08:50:43;;;;;;;5.53;4.60;;;22.40;76.90;;;;;;5073751;28;20208;-69
2023/05/03 08:53:10;;;;;;;6.57;4.97;;;22.30;77.60;;;;;;5073680;28;20221;-68
2023/05/03 08:55:37;;;;;;;6.72;4.95;;;22.30;77.60;;;;;;5073787;28;20291;-65
2023/05/03 08:58:09;;;;;;;6.25;5.40;;;22.50;77.80;;;;;;5073772;28;20680;-67
2023/05/03 09:00:37;;;;;;;6.10;5.43;;;22.50;77.70;;;;;;5074066;28;20609;-67
2023/05/03 09:03:04;;;;;;;5.97;5.40;;;22.10;78.50;;;;;;5073554;28;20690;-65
2023/05/03 09:05:32;;;;;;;6.35;4.88;;;21.80;79.80;;;;;;5073439;28;20638;-68
2023/05/03 09:08:05;;;;;;;6.45;5.15;;;21.70;80.70;;;;;;5073634;28;20295;-68
2023/05/03 09:10:33;;;;;;;5.85;4.60;;;21.60;80.90;;;;;;5073088;28;20950;-63
2023/05/03 09:13:00;;;;;;;5.95;5.35;;;21.70;81.40;;;;;;5073274;28;20233;-66
2023/05/03 09:15:28;;;;;;;6.40;5.30;;;21.60;82.10;;;;;;5073500;28;20663;-66
2023/05/03 09:18:12;;;;;;;6.90;5.00;;;21.50;82.50;;;;;;5072989;28;20671;-64
2023/05/03 09:20:41;;;;;;;5.78;4.80;;;21.90;82.20;;;;;;5073178;28;20255;-66
2023/05/03 09:23:10;;;;;;;7.85;5.10;;;22.10;81.40;;;;;;5072721;28;20224;-65
2023/05/03 09:25:44;;;;;;;5.40;4.72;;;22.30;80.60;;;;;;5072878;28;20622;-65
2023/05/03 09:28:11;;;;;;;5.80;4.55;;;22.40;80.70;;;;;;5072959;28;20238;-63
2023/05/03 09:30:38;;;;;;;5.88;5.25;;;22.20;81.30;;;;;;5073172;28;20730;-63
2023/05/03 09:33:05;;;;;;;5.82;5.28;;;22.20;81.20;;;;;;5072821;28;20235;-64
2023/05/03 09:35:32;;;;;;;6.60;5.18;;;22.20;81.20;;;;;;5072952;28;20235;-64
2023/05/03 09:37:58;;;;;;;5.63;4.68;;;22.20;81.80;;;;;;5072976;28;20204;-67
2023/05/03 09:40:28;;;;;;;6.30;4.95;;;22.20;81.90;;;;;;5072642;28;20225;-64
2023/05/03 09:43:11;;;;;;;8.50;5.35;;;22.10;82.10;;;;;;5072142;28;20275;-64
2023/05/03 09:45:39;;;;;;;5.15;4.55;;;22.20;82.50;;;;;;5073130;28;20266;-66
2023/05/03 09:48:07;;;;;;;7.00;5.18;;;22.30;82.60;;;;;;5072513;28;20299;-65
2023/05/03 09:50:35;;;;;;;6.30;5.00;;;22.30;81.90;;;;;;5073005;28;20241;-63
2023/05/03 09:53:03;;;;;;;5.93;4.88;;;22.40;81.50;;;;;;5071399;28;20250;-65
2023/05/03 09:55:36;;;;;;;5.63;4.45;;;22.60;80.00;;;;;;5072708;28;20233;-63
2023/05/03 09:58:06;;;;;;;6.20;4.57;;;22.60;80.90;;;;;;5072861;28;20256;-64
2023/05/03 10:00:37;;;;;;;5.28;4.20;;;22.50;80.00;;;;;;5072969;28;20312;-64
2023/05/03 10:03:10;;;;;;;5.97;4.13;;;22.90;80.00;;;;;;5072194;28;20228;-65
2023/05/03 10:05:43;;;;;;;4.20;3.80;;;23.20;78.50;;;;;;5073041;28;20255;-66
2023/05/03 10:08:12;;;;;;;5.28;4.40;;;23.20;78.50;;;;;;5073014;28;20288;-66
2023/05/03 10:10:43;;;;;;;7.82;4.55;;;23.20;78.90;;;;;;5072101;28;20358;-66
2023/05/03 10:13:11;;;;;;;5.30;4.32;;;23.10;79.60;;;;;;5072017;28;20789;-64
2023/05/03 10:15:41;;;;;;;7.55;4.63;;;23.10;79.80;;;;;;5072796;28;20266;-65
2023/05/03 10:18:10;;;;;;;4.90;4.28;;;23.10;78.40;;;;;;5071830;28;20205;-67
2023/05/03 10:20:41;;;;;;;5.30;4.75;;;22.90;78.70;;;;;;5072623;28;20225;-66
2023/05/03 10:23:09;;;;;;;6.07;4.68;;;22.20;80.20;;;;;;5071917;28;20282;-66
2023/05/03 10:25:37;;;;;;;6.60;4.25;;;21.80;81.60;;;;;;5072147;28;20205;-67
2023/05/03 10:28:07;;;;;;;5.43;4.70;;;21.30;83.00;;;;;;5072116;28;20762;-66
2023/05/03 10:30:35;;;;;;;5.85;4.07;;;21.10;83.90;;;;;;5072033;28;20205;-64
2023/05/03 10:33:31;;;;;;;5.97;4.50;;;21.00;83.80;;;;;;5071683;28;20228;-69
2023/05/03 10:35:59;;;;;;;4.95;4.45;;;20.90;83.00;;;;;;5072114;28;20227;-67
2023/05/03 10:38:27;;;;;;;6.60;4.43;;;20.70;83.80;;;;;;5073317;28;20649;-66
2023/05/03 10:40:55;;;;;;;6.00;4.57;;;20.60;84.50;;;;;;5073269;28;20250;-65
2023/05/03 10:43:45;;;;;;;5.13;4.63;;;20.60;85.00;;;;;;5072484;28;20244;-65
2023/05/03 10:46:33;;;;;;;5.35;4.50;;;20.60;85.30;;;;;;5072825;28;20555;-65
2023/05/03 10:49:16;;;;;;;6.55;4.75;;;20.80;85.50;;;;;;5073382;28;20204;-65
2023/05/03 10:51:44;;;;;;;6.20;4.20;;;21.20;84.60;;;;;;5073108;28;20228;-65
2023/05/03 10:54:11;;;;;;;4.70;4.20;;;21.40;83.60;;;;;;5072890;28;20264;-65
2023/05/03 10:56:48;;;;;;;6.47;4.32;;;21.30;83.60;;;;;;5073209;28;20204;-64
2023/05/03 10:59:16;;;;;;;5.97;4.88;;;21.50;83.10;;;;;;5074544;28;20209;-66
2023/05/03 11:01:45;;;;;;;5.30;4.55;;;21.70;81.80;;;;;;5074050;28;20696;-64
2023/05/03 11:04:18;;;;;;;4.75;4.10;;;21.80;82.40;;;;;;5072682;28;20232;-65
2023/05/03 11:06:48;;;;;;;5.50;4.00;;;21.90;82.00;;;;;;5073209;28;20214;-64
2023/05/03 11:09:15;;;;;;;5.07;4.00;;;22.00;82.00;;;;;;5073106;28;20212;-65
2023/05/03 11:11:42;;;;;;;3.95;3.55;;;22.00;81.00;;;;;;5073035;28;20201;-66
2023/05/03 11:14:10;;;;;;;4.35;3.95;;;21.80;81.40;;;;;;5072368;28;20331;-65
2023/05/03 11:16:46;;;;;;;5.95;3.67;;;21.70;80.90;;;;;;5072836;28;20231;-69
2023/05/03 11:19:13;;;;;;;7.80;3.35;;;21.40;80.20;;;;;;5072921;28;20232;-65
2023/05/03 11:21:40;;;;;;;5.88;3.83;;;21.30;79.30;;;;;;5072547;28;20684;-65
2023/05/03 11:24:07;;;;;;;7.28;3.97;;;21.20;78.50;;;;;;5072021;28;20608;-64
2023/05/03 11:26:36;;;;;;;6.28;4.03;;;21.00;81.60;;;;;;5072473;28;20205;-66
2023/05/03 11:29:02;;;;;;;4.90;3.30;;;21.00;81.90;;;;;;5072299;28;20250;-64
2023/05/03 11:31:29;;;;;;;4.03;3.22;;;21.10;79.50;;;;;;5072728;28;20209;-65
2023/05/03 11:33:58;;;;;;;4.85;3.67;;;21.00;80.10;;;;;;5072760;28;20229;-65
2023/05/03 11:36:26;;;;;;;4.15;3.60;;;21.10;80.70;;;;;;5074515;28;20207;-66
2023/05/03 11:38:53;;;;;;;3.97;3.55;;;21.20;81.10;;;;;;5078356;28;20668;-65
2023/05/03 11:41:20;;;;;;;5.85;3.70;;;21.40;81.00;;;;;;5078210;28;20251;-65
2023/05/03 11:43:49;;;;;;;5.18;3.38;;;21.40;79.50;;;;;;5077869;28;20228;-65
2023/05/03 11:46:19;;;;;;;4.10;2.85;;;21.50;79.00;;;;;;5075585;28;20227;-65
2023/05/03 11:48:46;;;;;;;5.28;3.58;;;21.30;76.10;;;;;;5072867;28;20204;-65
2023/05/03 11:51:14;;;;;;;4.40;3.03;;;21.20;76.40;;;;;;5072877;28;20208;-65
2023/05/03 11:53:42;;;;;;;5.20;3.33;;;21.20;77.70;;;;;;5072340;28;20763;-65
2023/05/03 11:56:12;;;;;;;4.65;3.60;;;21.10;79.00;;;;;;5072388;28;20208;-66
2023/05/03 11:58:51;;;;;;;4.10;3.25;;;20.80;78.40;;;;;;5073153;28;20258;-65
2023/05/03 12:01:18;;;;;;;5.72;3.40;;;20.70;79.20;;;;;;5072533;28;20224;-64
2023/05/03 12:03:46;;;;;;;5.07;2.92;;;20.70;79.90;;;;;;5071761;28;20229;-65
2023/05/03 12:06:15;;;;;;;3.53;3.10;;;21.00;79.70;;;;;;5072297;28;20676;-65
2023/05/03 12:08:42;;;;;;;4.40;3.40;;;21.30;79.00;;;;;;5072320;28;20763;-65
2023/05/03 12:11:09;;;;;;;3.78;2.90;;;21.50;78.00;;;;;;5072320;28;20200;-65
2023/05/03 12:13:37;;;;;;;3.80;3.03;;;21.60;76.80;;;;;;5071475;28;20315;-64
2023/05/03 12:16:05;;;;;;;3.38;2.83;;;21.70;75.50;;;;;;5073225;28;20346;-65
2023/05/03 12:18:46;;;;;;;3.38;2.85;;;22.00;74.40;;;;;;5076236;28;20211;-66
2023/05/03 12:21:14;;;;;;;5.28;3.45;;;22.00;75.40;;;;;;5076368;28;20224;-65
2023/05/03 12:23:41;;;;;;;4.95;3.00;;;21.90;74.80;;;;;;5076172;28;20374;-65
2023/05/03 12:26:08;;;;;;;4.38;3.08;;;21.70;74.60;;;;;;5076559;28;20209;-66
2023/05/03 12:28:35;;;;;;;4.65;3.35;;;21.60;74.70;;;;;;5076204;28;20211;-65
2023/05/03 12:31:03;;;;;;;4.15;2.97;;;21.60;74.90;;;;;;5076247;28;20205;-65
2023/05/03 12:33:30;;;;;;;3.58;3.05;;;21.40;75.20;;;;;;5075799;28;20224;-65
2023/05/03 12:35:57;;;;;;;4.00;2.95;;;21.20;75.60;;;;;;5076448;28;20254;-65
2023/05/03 12:38:25;;;;;;;2.92;2.55;;;21.00;76.60;;;;;;5076218;28;20991;-65
2023/05/03 12:40:52;;;;;;;4.72;3.03;;;20.90;77.00;;;;;;5075781;28;20799;-67
2023/05/03 12:43:19;;;;;;;3.63;2.67;;;20.80;77.00;;;;;;5075739;28;20322;-65
2023/05/03 12:45:46;;;;;;;2.90;2.60;;;21.10;76.70;;;;;;5076690;28;20688;-65
2023/05/03 12:48:12;;;;;;;4.95;3.10;;;21.60;75.70;;;;;;5075427;28;20208;-64
2023/05/03 12:50:39;;;;;;;3.70;2.95;;;22.20;74.50;;;;;;5075803;28;20205;-64
2023/05/03 12:53:06;;;;;;;4.63;3.20;;;22.80;73.50;;;;;;5075275;28;20236;-65